createdAt,value
2022-10-14T00:09:55.196Z,90.33
2022-10-14T00:12:07.441Z,90.28
2022-10-14T00:14:35.791Z,90.54
2022-10-14T00:17:04.019Z,90.62
2022-10-14T00:20:31.140Z,90.57
2022-10-14T00:30:12.302Z,90.55
2022-10-14T00:32:46.087Z,90.58
2022-10-14T00:38:16.167Z,90.50
2022-10-14T00:40:46.348Z,90.38
2022-10-14T00:43:16.565Z,90.30
2022-10-14T00:45:49.715Z,90.36
2022-10-14T00:48:45.122Z,90.32
2022-10-14T00:51:50.556Z,90.26
2022-10-14T00:55:22.407Z,90.27
2022-10-14T00:58:11.316Z,90.22
2022-10-14T01:00:41.402Z,90.33
2022-10-14T01:03:13.060Z,90.42
2022-10-14T01:05:46.697Z,90.44
2022-10-14T01:08:31.133Z,90.53
2022-10-14T01:11:19.422Z,90.50
2022-10-14T01:14:14.616Z,90.46
2022-10-14T01:16:56.830Z,90.45
2022-10-14T01:19:38.797Z,90.57
2022-10-14T01:22:46.034Z,90.64
2022-10-14T01:25:49.888Z,90.71
2022-10-14T01:28:38.717Z,90.64
2022-10-14T01:31:35.634Z,90.64
2022-10-14T01:34:09.681Z,90.58
2022-10-14T01:36:52.649Z,90.62
2022-10-14T01:39:28.331Z,90.62
2022-10-14T01:42:07.991Z,90.57
2022-10-14T01:44:41.468Z,90.55
2022-10-14T01:47:13.672Z,90.59
2022-10-14T01:49:59.510Z,90.62
2022-10-14T01:52:34.583Z,90.70
2022-10-14T01:55:09.333Z,90.60
2022-10-14T01:57:43.869Z,90.61
2022-10-14T02:00:14.919Z,90.62
2022-10-14T02:02:46.323Z,90.58
2022-10-14T02:05:38.142Z,90.55
2022-10-14T02:08:49.830Z,90.52
2022-10-14T02:11:22.806Z,90.48
2022-10-14T02:14:13.941Z,90.48
2022-10-14T02:17:00.420Z,90.44
2022-10-14T02:19:45.953Z,90.43
2022-10-14T02:22:37.592Z,90.43
2022-10-14T02:25:22.205Z,90.48
2022-10-14T02:27:51.996Z,90.47
2022-10-14T02:30:34.445Z,90.43
2022-10-14T02:36:41.495Z,90.30
2022-10-14T02:39:22.455Z,90.25
2022-10-14T02:41:54.441Z,90.15
2022-10-14T02:44:24.718Z,90.20
2022-10-14T02:46:59.257Z,90.13
2022-10-14T02:49:29.601Z,90.06
2022-10-14T02:51:58.949Z,89.98
2022-10-14T02:54:27.304Z,89.91
2022-10-14T02:56:57.360Z,89.98
2022-10-14T02:59:29.998Z,90.00
2022-10-14T03:01:59.088Z,90.02
2022-10-14T03:04:32.854Z,90.03
2022-10-14T03:07:02.444Z,90.00
2022-10-14T03:09:30.606Z,90.04
2022-10-14T03:12:01.240Z,90.07
2022-10-14T03:14:51.636Z,90.13
2022-10-14T03:17:27.045Z,90.28
2022-10-14T03:19:59.315Z,90.44
2022-10-14T03:22:34.571Z,90.49
2022-10-14T03:25:13.206Z,90.45
2022-10-14T03:27:51.241Z,90.42
2022-10-14T03:30:32.306Z,90.54
2022-10-14T03:33:26.006Z,90.61
2022-10-14T03:35:54.575Z,90.75
2022-10-14T03:38:28.625Z,90.85
2022-10-14T03:41:00.487Z,91.02
2022-10-14T03:43:33.444Z,91.16
2022-10-14T03:46:04.784Z,91.19
2022-10-14T03:48:41.164Z,91.34
2022-10-14T03:51:10.307Z,91.41
2022-10-14T03:53:38.915Z,91.44
2022-10-14T03:56:09.758Z,91.48
2022-10-14T03:58:37.848Z,91.49
2022-10-14T04:01:07.615Z,91.61
2022-10-14T04:03:46.700Z,91.64
2022-10-14T04:06:34.053Z,91.75
2022-10-14T04:09:06.217Z,91.74
2022-10-14T04:11:45.430Z,91.78
2022-10-14T04:21:05.263Z,91.77
2022-10-14T05:03:48.063Z,92.01
2022-10-14T05:06:17.767Z,92.05
2022-10-14T05:08:57.793Z,91.88
2022-10-14T05:11:53.917Z,91.86
2022-10-14T05:14:47.252Z,91.75
2022-10-14T05:20:54.467Z,91.91
2022-10-14T05:23:27.410Z,91.99
2022-10-14T05:25:58.179Z,92.03
2022-10-14T05:28:26.020Z,92.01
2022-10-14T05:30:57.334Z,91.94
2022-10-14T05:33:41.353Z,91.91
2022-10-14T05:54:34.690Z,92.17
2022-10-14T05:57:23.046Z,92.14
2022-10-14T06:00:09.557Z,92.26
2022-10-14T06:02:55.176Z,92.33
2022-10-14T06:05:45.377Z,92.39
2022-10-14T06:09:01.155Z,92.36
2022-10-14T06:11:58.248Z,92.35
2022-10-14T06:18:18.437Z,92.00
2022-10-14T06:21:21.254Z,92.08
2022-10-14T06:31:17.489Z,91.90
2022-10-14T06:34:20.143Z,91.82
2022-10-14T06:40:39.344Z,91.70
2022-10-14T06:53:27.689Z,91.46
2022-10-14T07:02:54.557Z,91.44
2022-10-14T07:05:53.676Z,91.50
2022-10-14T07:08:40.722Z,91.36
2022-10-14T07:11:29.076Z,91.45
2022-10-14T07:14:11.693Z,91.49
2022-10-14T07:17:00.158Z,91.38
2022-10-14T07:20:00.013Z,91.20
2022-10-14T07:22:39.293Z,91.16
2022-10-14T07:25:19.054Z,91.20
2022-10-14T07:27:59.682Z,91.12
2022-10-14T07:30:53.323Z,90.64
2022-10-14T07:33:27.146Z,90.55
2022-10-14T07:36:15.061Z,89.75
2022-10-14T07:39:00.799Z,89.33
2022-10-14T07:41:45.047Z,89.45
2022-10-14T07:44:30.897Z,89.36
2022-10-14T07:47:14.834Z,89.28
2022-10-14T07:49:56.768Z,89.15
2022-10-14T07:52:45.333Z,89.03
2022-10-14T07:55:21.494Z,88.14
2022-10-14T07:57:53.834Z,88.00
2022-10-14T08:00:21.901Z,87.50
2022-10-14T08:02:56.000Z,87.22
2022-10-14T08:05:38.986Z,85.92
2022-10-14T08:08:16.874Z,86.44
2022-10-14T08:10:46.966Z,85.02
2022-10-14T08:13:18.902Z,81.49
2022-10-14T08:15:47.915Z,81.72
2022-10-14T08:18:16.002Z,81.46
2022-10-14T08:20:51.723Z,80.68
2022-10-14T08:23:20.317Z,79.21
2022-10-14T08:25:50.635Z,78.39
2022-10-14T08:28:24.589Z,78.37
2022-10-14T08:30:55.742Z,76.76
2022-10-14T08:33:23.632Z,75.61
2022-10-14T08:35:53.946Z,76.19
2022-10-14T08:38:22.669Z,76.03
2022-10-14T08:41:25.795Z,75.58
2022-10-14T08:44:35.760Z,75.23
2022-10-14T08:47:06.117Z,72.74
2022-10-14T08:49:39.577Z,70.14
2022-10-14T08:52:12.831Z,69.19
2022-10-14T08:54:58.182Z,68.85
2022-10-14T08:57:31.006Z,68.43
2022-10-14T08:59:59.014Z,66.13
2022-10-14T09:02:44.210Z,65.99
2022-10-14T09:05:19.491Z,64.90
2022-10-14T09:10:27.338Z,63.67
2022-10-14T09:13:02.892Z,64.44
2022-10-14T09:15:38.978Z,63.76
2022-10-14T09:18:21.173Z,63.25
2022-10-14T09:20:48.992Z,62.81
2022-10-14T09:23:23.426Z,62.83
2022-10-14T09:26:05.845Z,62.73
2022-10-14T09:28:43.431Z,62.38
2022-10-14T09:31:14.142Z,61.46
2022-10-14T09:33:44.570Z,62.16
2022-10-14T09:36:20.268Z,60.50
2022-10-14T09:38:55.000Z,61.55
2022-10-14T09:41:28.160Z,59.05
2022-10-14T09:44:22.650Z,58.25
2022-10-14T09:46:55.676Z,57.32
2022-10-14T09:49:34.875Z,55.94
2022-10-14T09:52:03.755Z,56.62
2022-10-14T09:54:32.899Z,57.17
2022-10-14T09:57:07.697Z,56.45
2022-10-14T09:59:49.872Z,57.25
2022-10-14T10:02:34.737Z,56.81
2022-10-14T10:05:26.028Z,56.39
2022-10-14T10:08:18.942Z,57.52
2022-10-14T10:11:06.637Z,55.72
2022-10-14T10:13:43.570Z,56.14
2022-10-14T10:16:31.232Z,52.99
2022-10-14T10:19:25.925Z,54.42
2022-10-14T10:21:54.816Z,55.81
2022-10-14T10:24:26.071Z,56.58
2022-10-14T10:26:53.352Z,54.94
2022-10-14T10:29:35.679Z,55.67
2022-10-14T10:32:17.956Z,55.89
2022-10-14T10:34:57.841Z,54.77
2022-10-14T10:37:36.628Z,52.46
2022-10-14T10:40:34.027Z,52.09
2022-10-14T10:43:36.581Z,52.98
2022-10-14T10:46:26.914Z,52.61
2022-10-14T10:49:20.277Z,53.02
2022-10-14T10:52:25.902Z,52.11
2022-10-14T10:55:02.426Z,50.48
2022-10-14T10:57:45.722Z,50.08
2022-10-14T11:00:19.572Z,51.35
2022-10-14T11:03:11.676Z,51.40
2022-10-14T11:06:07.618Z,51.60
2022-10-14T11:08:49.649Z,50.86
2022-10-14T11:11:54.518Z,50.74
2022-10-14T11:15:01.161Z,49.30
2022-10-14T11:17:55.760Z,48.80
2022-10-14T11:20:50.235Z,47.22
2022-10-14T11:23:42.632Z,48.40
2022-10-14T11:26:45.723Z,49.42
2022-10-14T11:29:49.609Z,49.28
2022-10-14T11:32:57.247Z,50.34
2022-10-14T11:36:14.681Z,49.85
2022-10-14T11:39:33.316Z,49.88
2022-10-14T11:42:33.464Z,49.98
2022-10-14T11:45:14.197Z,51.52
2022-10-14T11:47:48.795Z,51.14
2022-10-14T11:50:28.421Z,52.46
2022-10-14T11:53:12.933Z,52.93
2022-10-14T11:55:46.403Z,53.39
2022-10-14T11:58:20.118Z,53.51
2022-10-14T12:01:15.589Z,54.55
2022-10-14T12:03:57.222Z,54.73
2022-10-14T12:06:45.675Z,55.40
2022-10-14T12:09:20.180Z,55.90
2022-10-14T12:12:06.882Z,56.20
2022-10-14T12:14:54.933Z,56.44
2022-10-14T12:17:52.091Z,56.25
2022-10-14T12:20:32.336Z,56.34
2022-10-14T12:23:03.264Z,55.86
2022-10-14T12:25:42.552Z,55.62
2022-10-14T12:28:20.121Z,55.10
2022-10-14T12:30:52.438Z,55.07
2022-10-14T12:33:23.178Z,55.13
2022-10-14T12:36:10.026Z,54.76
2022-10-14T12:39:41.216Z,54.33
2022-10-14T12:42:21.982Z,54.39
2022-10-14T12:45:20.042Z,54.42
2022-10-14T12:47:51.868Z,54.75
2022-10-14T12:50:42.177Z,55.16
2022-10-14T12:53:30.599Z,54.57
2022-10-14T12:56:05.698Z,53.64
2022-10-14T12:59:31.187Z,52.91
2022-10-14T13:02:20.451Z,53.45
2022-10-14T13:04:58.630Z,54.55
2022-10-14T13:07:56.962Z,55.03
2022-10-14T13:11:26.763Z,55.45
2022-10-14T13:17:46.741Z,55.93
2022-10-14T13:20:40.176Z,55.68
2022-10-14T13:23:29.910Z,55.74
2022-10-14T13:26:39.105Z,56.23
2022-10-14T13:29:40.744Z,56.32
2022-10-14T13:33:01.949Z,56.56
2022-10-14T13:35:52.698Z,56.71
2022-10-14T13:41:44.801Z,56.06
2022-10-14T13:44:12.642Z,55.77
2022-10-14T13:46:47.371Z,55.56
2022-10-14T13:49:20.246Z,55.65
2022-10-14T13:52:00.460Z,55.49
2022-10-14T13:54:31.604Z,54.78
2022-10-14T13:57:38.124Z,54.38
2022-10-14T14:00:11.588Z,54.28
2022-10-14T14:02:20.931Z,53.75
2022-10-14T14:04:56.058Z,53.93
2022-10-14T14:08:07.863Z,54.20
2022-10-14T14:10:07.826Z,54.57
2022-10-14T14:12:35.992Z,54.43
2022-10-14T14:15:05.011Z,54.61
2022-10-14T14:17:34.487Z,54.54
2022-10-14T14:20:03.820Z,54.95
2022-10-14T14:22:31.678Z,54.76
2022-10-14T14:25:36.126Z,55.17
2022-10-14T14:28:02.072Z,55.33
2022-10-14T14:30:34.501Z,55.18
2022-10-14T14:33:10.128Z,55.71
2022-10-14T14:36:04.000Z,56.02
2022-10-14T14:38:38.142Z,56.15
2022-10-14T14:41:22.733Z,56.33
2022-10-14T14:44:13.743Z,56.74
2022-10-14T14:46:42.342Z,57.36
2022-10-14T14:49:16.232Z,57.55
2022-10-14T14:51:50.222Z,57.66
2022-10-14T14:54:21.752Z,57.75
2022-10-14T14:56:58.791Z,57.96
2022-10-14T14:59:38.685Z,58.21
2022-10-14T15:02:19.118Z,58.38
2022-10-14T15:05:11.641Z,58.61
2022-10-14T15:07:43.238Z,58.92
2022-10-14T15:10:22.401Z,59.24
2022-10-14T15:12:55.782Z,59.50
2022-10-14T15:15:36.218Z,59.82
2022-10-14T15:18:21.510Z,60.23
2022-10-14T15:20:49.058Z,60.52
2022-10-14T15:24:01.076Z,60.89
2022-10-14T15:26:35.458Z,61.17
2022-10-14T15:29:19.206Z,61.53
2022-10-14T15:32:04.496Z,61.86
2022-10-14T15:34:35.207Z,62.20
2022-10-14T15:37:03.219Z,62.38
2022-10-14T15:39:30.827Z,63.02
2022-10-14T15:41:58.451Z,63.41
2022-10-14T15:44:30.470Z,64.05
2022-10-14T15:47:18.467Z,64.19
2022-10-14T15:49:47.164Z,64.40
2022-10-14T15:52:16.837Z,64.87
2022-10-14T15:54:48.656Z,65.23
2022-10-14T15:57:21.007Z,65.40
2022-10-14T15:59:52.265Z,65.68
2022-10-14T16:02:32.239Z,66.13
2022-10-14T16:05:18.645Z,66.44
2022-10-14T16:07:34.084Z,66.54
2022-10-14T16:10:03.850Z,66.77
2022-10-14T16:12:31.801Z,66.89
2022-10-14T16:15:01.558Z,66.81
2022-10-14T16:17:31.582Z,66.76
2022-10-14T16:19:59.335Z,66.98
2022-10-14T16:22:27.239Z,67.75
2022-10-14T16:24:55.606Z,67.84
2022-10-14T16:27:25.607Z,68.08
2022-10-14T16:29:53.483Z,68.21
2022-10-14T16:32:31.622Z,68.43
2022-10-14T17:09:55.283Z,71.31
2022-10-14T17:12:54.364Z,72.07
2022-10-14T17:15:29.860Z,72.35
2022-10-14T17:18:12.075Z,72.94
2022-10-14T17:27:28.066Z,73.98
2022-10-14T17:30:07.539Z,73.77
2022-10-14T17:36:27.823Z,74.01
2022-10-14T17:38:57.311Z,74.29
2022-10-14T17:41:30.392Z,74.13
2022-10-14T17:44:01.061Z,74.17
2022-10-14T17:46:30.969Z,74.35
2022-10-14T17:49:01.405Z,74.32
2022-10-14T17:51:43.072Z,74.33
2022-10-14T17:54:17.836Z,74.39
2022-10-14T17:56:46.071Z,74.67
2022-10-14T17:59:13.793Z,74.57
2022-10-14T18:02:01.338Z,74.51
2022-10-14T18:04:14.030Z,74.61
2022-10-14T18:06:44.856Z,74.73
2022-10-14T18:09:16.046Z,74.69
2022-10-14T18:14:14.896Z,74.92
2022-10-14T18:16:44.245Z,75.00
2022-10-14T18:19:16.559Z,75.23
2022-10-14T18:21:47.800Z,75.30
2022-10-14T18:24:20.607Z,75.42
2022-10-14T18:26:54.322Z,75.49
2022-10-14T18:29:24.122Z,75.65
2022-10-14T18:34:21.731Z,75.78
2022-10-14T18:36:49.390Z,75.93
2022-10-14T18:56:59.743Z,77.01
2022-10-14T18:59:34.969Z,76.91
2022-10-14T19:08:22.636Z,77.39
2022-10-14T19:10:54.811Z,77.43
2022-10-14T21:18:45.247Z,80.44
2022-10-14T21:34:19.845Z,80.89
2022-10-14T21:55:07.037Z,81.40
2022-10-14T21:57:38.163Z,81.34
2022-10-14T22:00:17.478Z,81.38
2022-10-14T22:02:56.221Z,81.39
2022-10-14T22:05:24.444Z,81.37
2022-10-14T22:08:08.151Z,81.40
2022-10-14T22:10:47.545Z,81.44
2022-10-14T22:13:35.442Z,81.55
2022-10-14T22:16:14.099Z,81.63
2022-10-14T22:18:51.515Z,81.57
2022-10-14T22:21:28.263Z,81.67
2022-10-14T22:24:09.394Z,81.67
2022-10-14T22:26:42.656Z,81.67
2022-10-14T22:29:31.719Z,81.73
2022-10-14T22:35:59.101Z,81.89
2022-10-14T22:54:58.520Z,82.38
2022-10-14T22:57:50.987Z,82.40
2022-10-14T23:24:51.080Z,82.84
2022-10-14T23:27:36.318Z,82.76
2022-10-14T23:30:22.312Z,82.86
2022-10-14T23:33:12.288Z,82.83
2022-10-14T23:36:02.281Z,82.91
2022-10-14T23:38:46.577Z,82.98
2022-10-14T23:41:16.068Z,83.19
2022-10-14T23:44:07.544Z,83.33
2022-10-14T23:46:58.157Z,83.30
2022-10-14T23:49:29.013Z,83.42
2022-10-14T23:51:57.107Z,83.45
2022-10-14T23:54:25.140Z,83.65
2022-10-14T23:56:53.238Z,83.72
2022-10-14T23:59:21.732Z,83.80
